createdAt,value
2017-12-19T00:01:44.807Z,85.50
2017-12-19T00:04:12.298Z,85.50
2017-12-19T00:06:39.791Z,85.50
2017-12-19T00:09:08.075Z,85.50
2017-12-19T00:11:35.579Z,85.50
2017-12-19T00:14:03.076Z,85.30
2017-12-19T00:16:30.711Z,85.50
2017-12-19T00:18:58.204Z,85.20
2017-12-19T00:21:25.699Z,84.90
2017-12-19T00:23:53.251Z,85.30
2017-12-19T00:26:20.751Z,85.30
2017-12-19T00:28:48.251Z,85.40
2017-12-19T00:31:15.771Z,85.30
2017-12-19T00:33:44.040Z,85.00
2017-12-19T00:36:12.322Z,84.80
2017-12-19T00:38:40.624Z,85.20
2017-12-19T00:41:08.124Z,85.20
2017-12-19T00:43:35.639Z,85.00
2017-12-19T00:46:03.151Z,85.20
2017-12-19T00:48:30.648Z,85.40
2017-12-19T00:50:58.142Z,85.40
2017-12-19T00:53:25.663Z,85.60
2017-12-19T00:55:53.172Z,85.40
2017-12-19T00:58:20.680Z,85.40
2017-12-19T01:00:48.190Z,85.40
2017-12-19T01:03:15.681Z,85.50
2017-12-19T01:05:43.176Z,85.30
2017-12-19T01:08:10.678Z,85.40
2017-12-19T01:10:38.951Z,85.30
2017-12-19T01:13:07.215Z,85.30
2017-12-19T01:15:34.724Z,85.30
2017-12-19T01:18:02.214Z,85.20
2017-12-19T01:20:29.707Z,85.30
2017-12-19T01:22:57.989Z,84.80
2017-12-19T01:25:25.550Z,84.80
2017-12-19T01:27:53.087Z,84.30
2017-12-19T01:30:21.340Z,84.70
2017-12-19T01:32:48.837Z,84.70
2017-12-19T01:35:16.347Z,84.70
2017-12-19T01:37:43.849Z,85.60
2017-12-19T01:40:12.182Z,85.00
2017-12-19T01:42:39.686Z,85.00
2017-12-19T01:45:07.168Z,84.80
2017-12-19T01:47:34.660Z,84.80
2017-12-19T01:50:02.177Z,84.70
2017-12-19T01:52:29.690Z,85.00
2017-12-19T01:54:57.964Z,84.70
2017-12-19T01:57:26.260Z,84.90
2017-12-19T01:59:53.773Z,84.80
2017-12-19T02:02:21.269Z,85.00
2017-12-19T02:04:48.805Z,84.80
2017-12-19T02:07:17.068Z,84.80
2017-12-19T02:09:44.587Z,84.80
2017-12-19T02:12:12.084Z,84.70
2017-12-19T02:14:39.579Z,84.60
2017-12-19T02:17:07.186Z,84.80
2017-12-19T02:19:34.685Z,84.60
2017-12-19T02:22:02.178Z,84.70
2017-12-19T02:24:29.688Z,84.80
2017-12-19T02:26:57.968Z,84.60
2017-12-19T02:29:26.228Z,84.50
2017-12-19T02:31:54.528Z,84.60
2017-12-19T02:34:22.047Z,84.60
2017-12-19T02:36:49.542Z,84.60
2017-12-19T02:39:17.042Z,84.60
2017-12-19T02:41:44.527Z,84.40
2017-12-19T02:44:12.795Z,84.60
2017-12-19T02:46:40.408Z,85.10
2017-12-19T02:49:08.668Z,84.40
2017-12-19T02:51:36.163Z,84.40
2017-12-19T02:54:03.696Z,84.50
2017-12-19T02:56:31.191Z,84.50
2017-12-19T02:58:58.684Z,84.40
2017-12-19T03:01:26.227Z,84.30
2017-12-19T03:03:54.496Z,84.40
2017-12-19T03:06:22.021Z,84.40
2017-12-19T03:08:49.531Z,84.30
2017-12-19T03:11:17.054Z,84.20
2017-12-19T03:13:44.552Z,84.30
2017-12-19T03:16:12.082Z,84.20
2017-12-19T03:18:39.614Z,84.40
2017-12-19T03:21:07.116Z,84.30
2017-12-19T03:23:34.766Z,85.10
2017-12-19T03:26:03.032Z,84.40
2017-12-19T03:28:31.303Z,84.50
2017-12-19T03:30:58.804Z,84.50
2017-12-19T03:33:26.305Z,84.40
2017-12-19T03:35:53.805Z,84.80
2017-12-19T03:38:21.331Z,84.10
2017-12-19T03:40:48.830Z,84.40
2017-12-19T03:43:16.328Z,84.30
2017-12-19T03:45:44.627Z,84.30
2017-12-19T03:48:12.902Z,84.10
2017-12-19T03:50:41.173Z,84.30
2017-12-19T03:53:09.475Z,84.20
2017-12-19T03:55:36.976Z,84.20
2017-12-19T03:58:04.471Z,84.30
2017-12-19T04:00:32.765Z,84.10
2017-12-19T04:03:00.259Z,84.00
2017-12-19T04:05:27.767Z,84.20
2017-12-19T04:07:55.273Z,84.20
2017-12-19T04:10:22.845Z,84.40
2017-12-19T04:12:50.359Z,84.30
2017-12-19T04:15:17.868Z,84.20
2017-12-19T04:17:45.358Z,84.10
2017-12-19T04:20:12.892Z,84.00
2017-12-19T04:22:41.163Z,84.10
2017-12-19T04:25:09.431Z,84.20
2017-12-19T04:27:37.826Z,84.20
2017-12-19T04:30:06.106Z,83.50
2017-12-19T04:32:33.652Z,83.50
2017-12-19T04:35:01.928Z,83.90
2017-12-19T04:37:30.196Z,83.90
2017-12-19T04:39:57.700Z,83.90
2017-12-19T04:42:25.208Z,83.80
2017-12-19T04:44:53.589Z,84.00
2017-12-19T04:47:21.850Z,84.00
2017-12-19T04:49:56.021Z,84.00
2017-12-19T04:52:23.516Z,84.50
2017-12-19T04:54:51.044Z,84.00
2017-12-19T04:57:18.538Z,83.80
2017-12-19T04:59:46.801Z,83.80
2017-12-19T05:02:14.350Z,83.80
2017-12-19T05:04:41.834Z,83.80
2017-12-19T05:07:10.097Z,83.70
2017-12-19T05:09:38.386Z,83.40
2017-12-19T05:12:05.884Z,83.40
2017-12-19T05:14:33.431Z,83.40
2017-12-19T05:17:00.933Z,83.50
2017-12-19T05:19:29.182Z,83.60
2017-12-19T05:21:57.695Z,83.50
2017-12-19T05:24:25.961Z,83.40
2017-12-19T05:26:54.265Z,83.40
2017-12-19T05:29:21.763Z,83.40
2017-12-19T05:31:49.288Z,83.60
2017-12-19T05:34:16.814Z,83.20
2017-12-19T05:36:45.071Z,83.30
2017-12-19T05:39:12.599Z,83.30
2017-12-19T05:41:40.135Z,83.80
2017-12-19T05:44:07.657Z,83.50
2017-12-19T05:46:35.926Z,83.30
2017-12-19T05:49:04.182Z,82.80
2017-12-19T05:51:31.708Z,82.80
2017-12-19T05:53:59.200Z,83.10
2017-12-19T05:56:27.470Z,82.40
2017-12-19T05:58:55.030Z,82.40
2017-12-19T06:01:22.526Z,82.40
2017-12-19T06:03:50.032Z,82.60
2017-12-19T06:06:17.528Z,82.90
2017-12-19T06:08:45.788Z,82.70
2017-12-19T06:11:14.088Z,82.50
2017-12-19T06:13:41.593Z,82.50
2017-12-19T06:16:09.076Z,82.10
2017-12-19T06:18:37.360Z,82.40
2017-12-19T06:21:05.627Z,81.70
2017-12-19T06:23:33.114Z,81.70
2017-12-19T06:26:00.615Z,81.40
2017-12-19T06:28:28.164Z,82.30
2017-12-19T06:30:55.654Z,82.20
2017-12-19T06:33:23.948Z,82.20
2017-12-19T06:35:51.449Z,82.20
2017-12-19T06:38:18.940Z,82.40
2017-12-19T06:40:46.468Z,82.30
2017-12-19T06:43:13.957Z,82.50
2017-12-19T06:45:42.233Z,82.60
2017-12-19T06:48:09.752Z,82.60
2017-12-19T06:50:37.249Z,82.60
2017-12-19T06:53:05.547Z,82.50
2017-12-19T06:55:33.076Z,82.50
2017-12-19T06:58:00.577Z,82.70
2017-12-19T07:00:28.065Z,82.70
2017-12-19T07:02:55.576Z,82.50
2017-12-19T07:05:23.088Z,82.80
2017-12-19T07:07:50.585Z,82.10
2017-12-19T07:10:18.111Z,82.70
2017-12-19T07:12:46.377Z,82.00
2017-12-19T07:15:13.879Z,82.00
2017-12-19T07:17:41.401Z,81.90
2017-12-19T07:20:09.663Z,82.30
2017-12-19T07:22:37.278Z,82.30
2017-12-19T07:25:04.776Z,82.00
2017-12-19T07:27:32.272Z,82.20
2017-12-19T07:29:59.789Z,82.20
2017-12-19T07:32:27.292Z,82.20
2017-12-19T07:34:54.817Z,82.10
2017-12-19T07:37:22.309Z,82.20
2017-12-19T07:39:49.820Z,82.10
2017-12-19T07:42:17.312Z,82.00
2017-12-19T07:44:44.814Z,82.10
2017-12-19T07:47:12.326Z,81.80
2017-12-19T07:49:39.844Z,81.90
2017-12-19T07:52:07.340Z,81.90
2017-12-19T07:54:34.879Z,81.80
2017-12-19T07:57:03.156Z,81.70
2017-12-19T07:59:31.423Z,81.60
2017-12-19T08:01:59.802Z,81.40
2017-12-19T08:04:28.078Z,81.20
2017-12-19T08:06:55.586Z,81.30
2017-12-19T08:09:23.134Z,81.20
2017-12-19T08:11:50.660Z,81.30
2017-12-19T08:14:18.213Z,80.30
2017-12-19T08:16:45.680Z,80.90
2017-12-19T08:19:13.204Z,81.20
2017-12-19T08:21:40.743Z,80.40
2017-12-19T08:24:08.249Z,81.40
2017-12-19T08:26:35.742Z,80.90
2017-12-19T08:29:03.246Z,81.30
2017-12-19T08:31:31.515Z,81.10
2017-12-19T08:33:59.005Z,81.10
2017-12-19T08:36:26.520Z,81.30
2017-12-19T08:38:54.032Z,81.50
2017-12-19T08:41:21.544Z,81.30
2017-12-19T08:43:49.834Z,81.20
2017-12-19T08:46:18.114Z,81.50
2017-12-19T08:48:45.643Z,81.50
2017-12-19T08:51:13.147Z,81.20
2017-12-19T08:53:40.636Z,81.70
2017-12-19T08:56:08.147Z,81.10
2017-12-19T08:58:35.657Z,81.00
2017-12-19T09:01:03.166Z,81.00
2017-12-19T09:03:30.816Z,80.90
2017-12-19T09:05:58.320Z,80.50
2017-12-19T09:08:25.812Z,81.20
2017-12-19T09:10:54.192Z,80.00
2017-12-19T09:13:22.516Z,79.70
2017-12-19T09:15:50.012Z,79.80
2017-12-19T09:18:17.530Z,79.80
2017-12-19T09:20:45.027Z,80.40
2017-12-19T09:23:12.514Z,81.20
2017-12-19T09:25:40.032Z,82.30
2017-12-19T09:28:07.522Z,82.00
2017-12-19T09:30:35.045Z,82.70
2017-12-19T09:33:02.546Z,82.50
2017-12-19T09:35:30.835Z,82.00
2017-12-19T09:37:58.346Z,82.00
2017-12-19T09:40:26.600Z,82.10
2017-12-19T09:42:54.137Z,82.00
2017-12-19T09:45:21.659Z,82.20
2017-12-19T09:47:49.152Z,82.10
2017-12-19T09:50:16.686Z,81.30
2017-12-19T09:52:44.230Z,81.20
2017-12-19T09:55:11.748Z,81.30
2017-12-19T09:57:39.263Z,80.80
2017-12-19T10:00:06.774Z,81.50
2017-12-19T10:02:35.049Z,81.10
2017-12-19T10:05:03.430Z,80.70
2017-12-19T10:07:31.704Z,80.90
2017-12-19T10:09:59.980Z,80.20
2017-12-19T10:12:28.254Z,80.90
2017-12-19T10:14:56.523Z,80.80
2017-12-19T10:17:24.023Z,80.80
2017-12-19T10:19:51.652Z,81.30
2017-12-19T10:22:19.938Z,80.50
2017-12-19T10:24:47.521Z,80.50
2017-12-19T10:27:15.022Z,80.50
2017-12-19T10:29:42.518Z,80.60
2017-12-19T10:32:10.025Z,80.40
2017-12-19T10:34:37.635Z,80.30
2017-12-19T10:37:05.149Z,80.00
2017-12-19T10:39:32.642Z,79.70
2017-12-19T10:42:00.144Z,79.80
2017-12-19T10:44:27.643Z,79.80
2017-12-19T10:46:55.966Z,79.00
2017-12-19T10:49:23.500Z,78.90
2017-12-19T10:51:50.997Z,78.40
2017-12-19T10:54:18.499Z,78.50
2017-12-19T10:56:46.162Z,79.00
2017-12-19T11:05:02.048Z,79.70
2017-12-19T11:07:30.659Z,79.40
2017-12-19T11:09:58.928Z,78.70
2017-12-19T11:12:26.488Z,78.70
2017-12-19T11:14:54.777Z,78.90
2017-12-19T11:17:22.275Z,78.90
2017-12-19T11:19:49.778Z,78.30
2017-12-19T11:22:17.311Z,78.50
2017-12-19T11:24:44.821Z,78.60
2017-12-19T11:27:12.319Z,78.40
2017-12-19T11:29:39.869Z,78.70
2017-12-19T11:32:07.360Z,78.60
2017-12-19T11:34:35.620Z,78.60
2017-12-19T11:37:03.128Z,78.60
2017-12-19T11:39:30.635Z,78.20
2017-12-19T11:41:58.909Z,77.90
2017-12-19T11:44:26.519Z,77.90
2017-12-19T11:46:54.012Z,77.90
2017-12-19T11:49:21.525Z,77.40
2017-12-19T11:51:49.068Z,77.90
2017-12-19T11:54:16.622Z,78.20
2017-12-19T11:56:44.084Z,78.20
2017-12-19T11:59:11.607Z,78.20
2017-12-19T12:01:39.118Z,78.70
2017-12-19T12:04:06.620Z,78.60
2017-12-19T12:06:35.023Z,79.10
2017-12-19T12:09:02.538Z,78.50
2017-12-19T12:11:30.032Z,78.00
2017-12-19T12:13:57.566Z,78.10
2017-12-19T12:16:25.064Z,78.50
2017-12-19T12:18:52.584Z,78.40
2017-12-19T12:21:20.877Z,78.10
2017-12-19T12:23:49.149Z,78.60
2017-12-19T12:26:17.421Z,78.70
2017-12-19T12:28:45.707Z,78.50
2017-12-19T12:31:13.208Z,78.50
2017-12-19T12:33:40.699Z,78.90
2017-12-19T12:36:08.204Z,79.00
2017-12-19T12:38:35.700Z,78.70
2017-12-19T12:41:03.330Z,78.60
2017-12-19T12:43:30.844Z,78.70
2017-12-19T12:45:59.108Z,78.90
2017-12-19T12:48:27.404Z,78.70
2017-12-19T12:50:54.914Z,78.80
2017-12-19T12:53:22.436Z,78.80
2017-12-19T12:55:49.984Z,79.00
2017-12-19T12:58:17.493Z,79.10
2017-12-19T13:00:45.033Z,78.70
2017-12-19T13:03:12.571Z,78.80
2017-12-19T13:05:40.081Z,78.40
2017-12-19T13:08:08.363Z,78.80
2017-12-19T13:10:36.657Z,79.20
2017-12-19T13:13:04.147Z,79.20
2017-12-19T13:15:31.775Z,78.80
2017-12-19T13:17:59.284Z,79.20
2017-12-19T13:20:27.564Z,79.50
2017-12-19T13:22:55.090Z,79.40
2017-12-19T13:25:22.598Z,79.40
2017-12-19T13:27:50.850Z,79.30
2017-12-19T13:30:18.379Z,79.30
2017-12-19T13:32:45.888Z,79.30
2017-12-19T13:35:14.168Z,79.30
2017-12-19T13:37:42.484Z,78.90
2017-12-19T13:40:09.996Z,79.00
2017-12-19T13:42:38.251Z,79.10
2017-12-19T13:45:05.783Z,79.10
2017-12-19T13:47:33.284Z,78.60
2017-12-19T13:50:00.796Z,79.20
2017-12-19T13:52:28.405Z,78.90
2017-12-19T13:54:57.675Z,79.20
2017-12-19T13:57:25.168Z,79.20
2017-12-19T13:59:52.676Z,79.20
2017-12-19T14:02:20.178Z,78.80
2017-12-19T14:04:47.685Z,78.70
2017-12-19T14:07:15.210Z,78.70
2017-12-19T14:09:42.714Z,78.70
2017-12-19T14:12:10.215Z,78.90
2017-12-19T14:14:37.735Z,78.90
2017-12-19T14:17:05.241Z,78.60
2017-12-19T14:19:32.723Z,79.40
2017-12-19T14:22:00.287Z,78.90
2017-12-19T14:24:27.773Z,78.70
2017-12-19T14:26:56.050Z,79.40
2017-12-19T14:29:24.319Z,79.20
2017-12-19T14:31:52.599Z,79.80
2017-12-19T14:34:20.883Z,79.50
2017-12-19T14:36:49.148Z,79.80
2017-12-19T14:39:17.454Z,79.80
2017-12-19T14:41:44.956Z,79.80
2017-12-19T14:44:12.457Z,79.70
2017-12-19T14:46:39.989Z,79.90
2017-12-19T14:49:08.247Z,80.10
2017-12-19T14:51:35.785Z,80.00
2017-12-19T14:54:03.299Z,80.20
2017-12-19T14:56:30.810Z,80.30
2017-12-19T14:58:58.308Z,80.40
2017-12-19T15:01:26.595Z,80.30
2017-12-19T15:03:54.091Z,80.30
2017-12-19T15:06:22.373Z,80.10
2017-12-19T15:08:50.761Z,80.10
2017-12-19T15:11:19.033Z,80.30
2017-12-19T15:13:47.292Z,80.10
2017-12-19T15:16:14.826Z,80.10
2017-12-19T15:18:42.315Z,80.30
2017-12-19T15:21:09.937Z,80.00
2017-12-19T15:23:37.427Z,80.40
2017-12-19T15:26:04.935Z,80.60
2017-12-19T15:28:32.472Z,80.60
2017-12-19T15:30:59.975Z,80.60
2017-12-19T15:33:27.507Z,80.60
2017-12-19T15:35:55.029Z,80.70
2017-12-19T15:38:23.297Z,80.90
2017-12-19T15:40:51.610Z,80.60
2017-12-19T15:43:19.183Z,80.70
2017-12-19T15:45:47.011Z,80.60
2017-12-19T15:48:14.524Z,80.60
2017-12-19T15:50:42.032Z,80.80
2017-12-19T15:53:09.535Z,80.10
2017-12-19T15:55:37.074Z,80.40
2017-12-19T15:58:04.570Z,80.00
2017-12-19T16:00:32.100Z,80.60
2017-12-19T16:02:59.619Z,80.70
2017-12-19T16:05:27.129Z,80.60
2017-12-19T16:07:54.674Z,80.60
2017-12-19T16:10:22.184Z,80.60
2017-12-19T16:12:49.808Z,80.70
2017-12-19T16:15:17.318Z,80.60
2017-12-19T16:17:44.964Z,80.70
2017-12-19T16:20:12.480Z,80.70
2017-12-19T16:22:40.182Z,80.80
2017-12-19T16:25:07.784Z,80.80
2017-12-19T16:27:35.294Z,80.70
2017-12-19T16:30:02.818Z,80.80
2017-12-19T16:32:30.316Z,80.70
2017-12-19T16:34:57.848Z,80.80
2017-12-19T16:37:27.186Z,80.90
2017-12-19T16:39:54.691Z,80.90
2017-12-19T16:42:23.015Z,81.10
2017-12-19T16:44:50.549Z,81.10
2017-12-19T16:47:18.380Z,80.70
2017-12-19T16:49:45.919Z,80.70
2017-12-19T16:52:13.444Z,81.10
2017-12-19T16:54:40.949Z,80.80
2017-12-19T16:57:08.464Z,81.10
2017-12-19T16:59:35.960Z,81.40
2017-12-19T17:02:03.530Z,81.40
2017-12-19T17:04:31.048Z,81.40
2017-12-19T17:06:59.307Z,81.50
2017-12-19T17:09:26.836Z,81.60
2017-12-19T17:11:54.348Z,81.60
2017-12-19T17:14:22.613Z,81.70
2017-12-19T17:16:50.909Z,81.70
2017-12-19T17:19:18.499Z,81.70
2017-12-19T17:21:46.010Z,81.40
2017-12-19T17:24:14.536Z,81.90
2017-12-19T17:26:42.044Z,81.90
2017-12-19T17:29:10.686Z,81.80
2017-12-19T17:31:38.204Z,81.80
2017-12-19T17:34:05.724Z,81.90
2017-12-19T17:36:33.270Z,81.90
2017-12-19T17:39:00.837Z,82.00
2017-12-19T17:41:28.374Z,82.10
2017-12-19T17:43:56.769Z,82.20
2017-12-19T17:46:24.264Z,82.20
2017-12-19T17:48:51.887Z,82.30
2017-12-19T17:51:19.549Z,82.30
2017-12-19T17:53:47.058Z,82.60
2017-12-19T17:56:14.604Z,82.50
2017-12-19T17:58:43.337Z,82.60
2017-12-19T18:01:10.850Z,82.50
2017-12-19T18:03:38.343Z,83.00
2017-12-19T18:06:05.868Z,82.60
2017-12-19T18:08:33.363Z,82.60
2017-12-19T18:11:00.934Z,82.80
2017-12-19T18:13:28.797Z,82.80
2017-12-19T18:15:56.310Z,82.90
2017-12-19T18:18:23.913Z,82.80
2017-12-19T18:20:51.415Z,82.90
2017-12-19T18:23:18.951Z,82.80
2017-12-19T18:25:46.505Z,82.90
2017-12-19T18:28:14.057Z,82.00
2017-12-19T18:30:42.403Z,82.70
2017-12-19T18:33:09.971Z,82.70
2017-12-19T18:35:37.499Z,82.30
2017-12-19T18:38:05.170Z,82.60
2017-12-19T18:40:33.489Z,82.40
2017-12-19T18:43:00.987Z,82.40
2017-12-19T18:45:28.513Z,82.70
2017-12-19T18:47:56.061Z,82.60
2017-12-19T18:50:23.596Z,82.30
2017-12-19T18:52:51.257Z,82.40
2017-12-19T18:55:18.798Z,82.40
2017-12-19T18:57:47.105Z,82.50
2017-12-19T19:00:14.670Z,82.50
2017-12-19T19:02:42.178Z,82.60
2017-12-19T19:05:10.476Z,82.50
2017-12-19T19:07:38.024Z,82.50
2017-12-19T19:10:05.629Z,82.40
2017-12-19T19:12:33.237Z,82.70
2017-12-19T19:15:01.556Z,82.70
2017-12-19T19:17:29.086Z,82.60
2017-12-19T19:19:57.390Z,82.90
2017-12-19T19:22:25.017Z,82.90
2017-12-19T19:27:29.642Z,82.70
2017-12-19T19:29:57.152Z,82.70
2017-12-19T19:32:24.731Z,82.40
2017-12-19T19:34:52.288Z,82.50
2017-12-19T19:37:19.898Z,82.20
2017-12-19T19:39:48.221Z,82.60
2017-12-19T19:42:15.786Z,82.60
2017-12-19T19:44:43.398Z,82.60
2017-12-19T19:47:11.720Z,82.40
2017-12-19T19:49:39.291Z,82.40
2017-12-19T19:52:06.944Z,82.70
2017-12-19T19:54:34.564Z,82.70
2017-12-19T19:57:02.081Z,82.40
2017-12-19T19:59:29.631Z,82.50
2017-12-19T20:01:57.191Z,82.50
2017-12-19T20:04:24.680Z,82.70
2017-12-19T20:06:53.088Z,82.40
2017-12-19T20:09:20.656Z,82.30
2017-12-19T20:11:48.935Z,82.40
2017-12-19T20:14:16.498Z,82.40
2017-12-19T20:16:44.038Z,82.60
2017-12-19T20:19:11.636Z,82.60
2017-12-19T20:21:39.188Z,82.80
2017-12-19T20:24:06.744Z,82.70
2017-12-19T20:26:34.263Z,82.20
2017-12-19T20:29:01.799Z,82.40
2017-12-19T20:31:30.122Z,82.20
2017-12-19T20:33:57.700Z,82.20
2017-12-19T20:36:25.260Z,82.30
2017-12-19T20:38:52.847Z,82.50
2017-12-19T20:41:21.223Z,81.90
2017-12-19T20:43:49.480Z,82.90
2017-12-19T20:46:17.065Z,82.30
2017-12-19T20:48:44.619Z,82.20
2017-12-19T20:51:12.922Z,82.30
2017-12-19T20:53:40.544Z,82.30
2017-12-19T20:56:08.091Z,82.10
2017-12-19T20:58:35.638Z,82.80
2017-12-19T21:01:03.212Z,82.90
2017-12-19T21:03:30.751Z,82.30
2017-12-19T21:05:58.249Z,82.60
2017-12-19T21:08:25.825Z,82.80
2017-12-19T21:10:53.391Z,83.00
2017-12-19T21:13:20.955Z,83.20
2017-12-19T21:15:48.621Z,83.00
2017-12-19T21:18:16.174Z,82.80
2017-12-19T21:20:43.714Z,82.30
2017-12-19T21:23:11.471Z,83.20
2017-12-19T21:25:39.015Z,83.10
2017-12-19T21:28:06.573Z,83.30
2017-12-19T21:30:34.932Z,83.10
2017-12-19T21:33:02.471Z,83.10
2017-12-19T21:35:30.027Z,82.70
2017-12-19T21:37:57.592Z,82.80
2017-12-19T21:40:25.086Z,83.00
2017-12-19T21:42:52.655Z,83.20
2017-12-19T21:45:20.239Z,82.80
2017-12-19T21:47:47.799Z,82.80
2017-12-19T21:50:15.355Z,82.40
2017-12-19T21:52:42.939Z,83.30
2017-12-19T21:55:10.507Z,83.40
2017-12-19T21:57:38.008Z,83.40
2017-12-19T22:00:05.686Z,83.70
2017-12-19T22:02:33.234Z,84.00
2017-12-19T22:05:00.804Z,83.00
2017-12-19T22:07:28.377Z,83.40
2017-12-19T22:09:55.875Z,83.00
2017-12-19T22:12:24.186Z,83.50
2017-12-19T22:14:51.759Z,83.60
2017-12-19T22:17:19.329Z,83.30
2017-12-19T22:19:46.890Z,83.90
2017-12-19T22:22:14.514Z,83.90
2017-12-19T22:24:42.074Z,83.40
2017-12-19T22:27:09.631Z,83.70
2017-12-19T22:29:37.247Z,84.00
2017-12-19T22:32:05.567Z,83.60
2017-12-19T22:34:33.070Z,83.60
2017-12-19T22:37:00.659Z,83.40
2017-12-19T22:39:28.210Z,83.20
2017-12-19T22:41:55.775Z,83.80
2017-12-19T22:44:23.392Z,83.90
2017-12-19T22:46:51.768Z,83.50
2017-12-19T22:49:19.341Z,83.50
2017-12-19T22:51:47.831Z,83.10
2017-12-19T22:54:16.266Z,83.70
2017-12-19T22:56:43.818Z,83.70
2017-12-19T22:59:11.346Z,83.60
2017-12-19T23:01:38.898Z,83.70
2017-12-19T23:04:06.495Z,83.40
2017-12-19T23:06:34.132Z,83.70
2017-12-19T23:09:01.686Z,83.70
2017-12-19T23:11:29.226Z,83.70
2017-12-19T23:13:56.748Z,83.80
2017-12-19T23:16:24.303Z,84.00
2017-12-19T23:18:52.648Z,83.30
2017-12-19T23:21:20.191Z,83.30
2017-12-19T23:23:47.750Z,84.20
2017-12-19T23:26:15.266Z,84.30
2017-12-19T23:28:43.542Z,84.10
2017-12-19T23:31:11.845Z,84.50
2017-12-19T23:33:39.399Z,84.50
2017-12-19T23:36:06.970Z,84.40
2017-12-19T23:38:34.500Z,84.60
2017-12-19T23:41:02.760Z,84.50
2017-12-19T23:43:30.343Z,84.50
2017-12-19T23:45:58.624Z,84.20
2017-12-19T23:48:26.888Z,84.30
2017-12-19T23:50:54.395Z,84.30
2017-12-19T23:53:22.004Z,84.20
2017-12-19T23:55:50.273Z,84.20
2017-12-19T23:58:17.771Z,84.20
